Eagle Rock, Virginia
Current Conditions -  °F | °C
As of 10:55 AM on Thursday 30 Oct 2014 (Local Time) from KHSP Reporting Station
Broken Clouds Broken Clouds  
Wind Chill: 32°   Ceiling: 1100
Heat Index: 38°   Visibility: 10mi
Dew Point: 32°   Wind: 10mph
Humidity: 77%   Direction: 330°NNW
Pressure: 30.04"   Gusts: NA
Location:  37.64°N, 79.8°W
Report Text: KHSP 301455Z AUTO 33009KT 10SM BKN011 04/00 A3004 RMK AO2 T00361001
Loading
Personal Weather Stations






























Interactive Weather Map
Tropical Storm Tracking
New forecast layout! Learn more

10-Day Weather Forecast

Advertisements
Track Severe Weather on mobile